Time;durP1;ratioP1;P1;durP2;ratioP2;P2;SDS_P1;SDS_P2;PMS_P1;PMS_P2;Temp;Humidity;BMP_temperature;BMP_pressure;BME280_temperature;BME280_humidity;BME280_pressure;Samples;Min_cycle;Max_cycle;Signal;HPM_P1;HPM_P2
2022/05/21 00:01:08;;;;;;;;;7.50;7.50;;;;;18.54;43.83;101850.09;4939494;28;45777;-48
2022/05/21 00:03:33;;;;;;;;;6.25;6.25;;;;;18.54;43.87;101851.88;4940137;28;45394;-47
2022/05/21 00:05:59;;;;;;;;;10.00;8.25;;;;;18.51;44.05;101853.72;4939290;28;47391;-47
2022/05/21 00:08:24;;;;;;;;;6.50;6.25;;;;;18.52;44.02;101862.56;4942440;28;45431;-48
2022/05/21 00:10:50;;;;;;;;;8.00;6.50;;;;;18.49;44.16;101866.19;4932031;28;45311;-48
2022/05/21 00:13:15;;;;;;;;;7.00;6.75;;;;;18.48;44.20;101853.81;4944480;28;45518;-48
2022/05/21 00:15:41;;;;;;;;;6.75;6.75;;;;;18.47;44.16;101857.38;4943501;28;46112;-46
2022/05/21 00:18:06;;;;;;;;;8.50;8.50;;;;;18.45;44.16;101853.03;4943143;28;45448;-48
2022/05/21 00:20:47;;;;;;;;;7.00;7.00;;;;;18.41;43.87;101852.25;4944602;28;45464;-47
2022/05/21 00:23:19;;;;;;;;;8.25;6.00;;;;;18.38;44.33;101852.34;4942620;28;45310;-47
2022/05/21 00:25:47;;;;;;;;;5.25;5.25;;;;;18.40;44.10;101852.28;4942658;28;45510;-49
2022/05/21 00:28:13;;;;;;;;;8.75;7.00;;;;;18.37;44.06;101847.94;4943592;28;45390;-54
2022/05/21 00:30:39;;;;;;;;;7.75;7.75;;;;;18.37;44.27;101855.06;4943346;28;45528;-49
2022/05/21 00:33:06;;;;;;;;;8.00;7.00;;;;;18.34;44.36;101853.34;4925654;28;45531;-55
2022/05/21 00:35:32;;;;;;;;;7.75;7.75;;;;;18.31;44.15;101850.78;4942562;28;46252;-48
2022/05/21 00:37:58;;;;;;;;;7.75;7.75;;;;;18.30;44.40;101857.00;4938301;28;45291;-51
2022/05/21 00:40:23;;;;;;;;;7.00;6.00;;;;;18.30;44.40;101851.69;4934637;28;45255;-50
2022/05/21 00:42:49;;;;;;;;;8.50;7.75;;;;;18.27;44.54;101849.13;4943075;28;45179;-51
2022/05/21 00:45:16;;;;;;;;;8.00;8.00;;;;;18.26;44.46;101856.22;4942978;28;46121;-47
2022/05/21 00:47:41;;;;;;;;;6.50;6.50;;;;;18.25;44.29;101851.84;4938358;28;45256;-50
2022/05/21 00:50:10;;;;;;;;;9.50;8.25;;;;;18.23;44.24;101855.47;4934675;28;45143;-47
2022/05/21 00:52:36;;;;;;;;;6.00;6.00;;;;;18.25;44.31;101858.94;4938056;28;45474;-48
2022/05/21 00:55:12;;;;;;;;;5.00;5.00;;;;;18.21;44.25;101855.47;4938276;28;45318;-49
2022/05/21 00:57:47;;;;;;;;;10.00;7.00;;;;;18.18;44.59;101852.91;4921711;28;45424;-49
2022/05/21 01:00:18;;;;;;;;;7.75;6.75;;;;;18.17;44.32;101853.81;4937076;28;45403;-49
2022/05/21 01:02:55;;;;;;;;;7.00;7.00;;;;;18.15;44.66;101851.22;4942717;28;45277;-47
2022/05/21 01:05:25;;;;;;;;;10.50;8.00;;;;;18.12;44.65;101850.44;4942616;28;46355;-49
2022/05/21 01:07:55;;;;;;;;;9.25;7.50;;;;;18.11;44.70;101848.69;4937763;28;45471;-50
2022/05/21 01:10:23;;;;;;;;;5.50;5.50;;;;;18.08;44.72;101854.97;4940015;28;45313;-48
2022/05/21 01:12:52;;;;;;;;;9.50;7.50;;;;;18.06;44.88;101840.81;4942568;28;45505;-47
2022/05/21 01:15:23;;;;;;;;;11.00;8.25;;;;;18.05;44.83;101833.78;4942364;28;45355;-46
2022/05/21 01:17:49;;;;;;;;;7.00;6.50;;;;;17.99;44.93;101849.91;4942500;28;45255;-48
2022/05/21 01:20:18;;;;;;;;;7.75;7.50;;;;;17.95;45.10;101842.91;4940047;28;45394;-50
2022/05/21 01:22:50;;;;;;;;;6.75;6.75;;;;;17.92;44.98;101843.84;4935387;28;45354;-48
2022/05/21 01:25:19;;;;;;;;;7.50;7.50;;;;;17.86;45.19;101847.56;4942372;28;45303;-47
2022/05/21 01:27:47;;;;;;;;;7.50;6.75;;;;;17.83;45.25;101849.41;4942601;28;45323;-47
2022/05/21 01:30:17;;;;;;;;;6.75;6.25;;;;;17.80;45.31;101852.16;4938222;28;45286;-49
2022/05/21 01:32:47;;;;;;;;;11.25;9.00;;;;;17.77;45.27;101847.78;4939032;28;45364;-46
2022/05/21 01:35:12;;;;;;;;;8.75;8.75;;;;;17.75;45.46;101846.97;4942085;28;45452;-49
2022/05/21 01:37:39;;;;;;;;;9.25;8.00;;;;;17.75;45.32;101846.06;4941814;28;45447;-47
2022/05/21 01:40:07;;;;;;;;;8.25;7.75;;;;;17.74;45.42;101849.69;4942333;28;45318;-48
2022/05/21 01:42:33;;;;;;;;;9.25;8.00;;;;;17.70;45.36;101860.38;4942092;28;45265;-46
2022/05/21 01:44:59;;;;;;;;;7.00;6.50;;;;;17.65;45.51;101849.00;4942046;28;46228;-47
2022/05/21 01:47:24;;;;;;;;;5.25;5.25;;;;;17.66;45.66;101852.50;4942060;28;45491;-47
2022/05/21 01:49:51;;;;;;;;;7.25;6.25;;;;;17.65;45.53;101848.13;4942346;28;45250;-49
2022/05/21 01:52:17;;;;;;;;;8.50;7.75;;;;;17.62;45.75;101850.84;4941834;28;45561;-49
2022/05/21 01:54:42;;;;;;;;;9.75;5.50;;;;;17.65;45.54;101853.44;4941975;28;45383;-49
2022/05/21 01:57:09;;;;;;;;;6.00;5.00;;;;;17.65;45.56;101851.66;4924491;28;45380;-46
2022/05/21 01:59:35;;;;;;;;;7.25;7.25;;;;;17.67;45.67;101859.56;4942354;28;45304;-51
2022/05/21 02:02:01;;;;;;;;;3.00;1.75;;;;;17.68;45.81;101859.56;4941836;28;45301;-48
2022/05/21 02:04:27;;;;;;;;;7.25;7.00;;;;;17.66;45.83;101852.50;4941914;28;47041;-47
2022/05/21 02:06:52;;;;;;;;;7.00;7.00;;;;;17.67;45.76;101856.91;4941650;28;45271;-47
2022/05/21 02:09:18;;;;;;;;;6.00;6.00;;;;;17.66;45.75;101857.81;4942034;28;45590;-50
2022/05/21 02:11:44;;;;;;;;;6.25;6.00;;;;;17.66;45.69;101847.19;4941662;28;45347;-47
2022/05/21 02:14:10;;;;;;;;;6.00;5.00;;;;;17.66;45.87;101847.19;4941730;28;46054;-47
2022/05/21 02:16:36;;;;;;;;;11.00;9.25;;;;;17.67;45.91;101846.28;4924097;28;45354;-46
2022/05/21 02:19:04;;;;;;;;;8.75;7.25;;;;;17.68;45.80;101856.00;4941839;28;45270;-50
2022/05/21 02:21:31;;;;;;;;;9.75;7.75;;;;;17.67;45.77;101851.59;4943362;28;45251;-46
2022/05/21 02:23:56;;;;;;;;;7.25;7.00;;;;;17.66;45.96;101852.50;4941670;28;46226;-51
2022/05/21 02:26:23;;;;;;;;;7.25;7.00;;;;;17.66;45.86;101849.84;4941837;28;45249;-46
2022/05/21 02:28:49;;;;;;;;;8.00;7.25;;;;;17.63;46.11;101849.94;4941383;28;45423;-47
2022/05/21 02:31:14;;;;;;;;;9.50;7.00;;;;;17.63;45.96;101853.47;4939300;28;45437;-48
2022/05/21 02:33:43;;;;;;;;;7.50;7.00;;;;;17.63;45.49;101855.25;4941485;28;46618;-50
2022/05/21 02:36:10;;;;;;;;;9.75;8.75;;;;;17.63;45.91;101849.94;4941130;28;45279;-48
2022/05/21 02:41:20;;;;;;;;;9.00;7.00;;;;;17.59;46.29;101849.16;4941220;28;45216;-46
2022/05/21 02:43:47;;;;;;;;;7.00;6.50;;;;;17.59;46.05;101850.94;4924113;28;46543;-50
2022/05/21 02:46:14;;;;;;;;;9.00;7.50;;;;;17.57;46.28;101848.31;4941322;28;45765;-50
2022/05/21 02:48:40;;;;;;;;;7.25;7.00;;;;;17.53;46.31;101849.31;4944311;28;45402;-50
2022/05/21 02:51:07;;;;;;;;;6.50;5.75;;;;;17.54;46.11;101854.56;4944713;28;45342;-49
2022/05/21 02:53:33;;;;;;;;;8.00;8.00;;;;;17.54;46.11;101856.38;4944532;28;46325;-47
2022/05/21 02:56:09;;;;;;;;;7.00;6.00;;;;;17.53;46.15;101854.63;4939866;28;45327;-46
2022/05/21 02:58:35;;;;;;;;;8.25;7.50;;;;;17.52;46.26;101852.88;4938290;28;45228;-50
2022/05/21 03:01:01;;;;;;;;;8.25;7.00;;;;;17.51;45.96;101856.47;4944572;28;45676;-48
2022/05/21 03:03:26;;;;;;;;;13.00;8.00;;;;;17.46;46.60;101851.25;4944581;28;45363;-46
2022/05/21 03:05:52;;;;;;;;;6.00;5.25;;;;;17.47;46.38;101862.75;4944670;28;45310;-49
2022/05/21 03:11:02;;;;;;;;;7.50;6.50;;;;;17.43;46.46;101855.78;4944430;28;45493;-47
2022/05/21 03:13:28;;;;;;;;;5.75;5.50;;;;;17.40;46.47;101854.06;4944140;28;46202;-49
2022/05/21 03:15:54;;;;;;;;;5.50;5.50;;;;;17.38;46.53;101855.88;4944358;28;45358;-49
2022/05/21 03:18:20;;;;;;;;;10.75;9.75;;;;;17.37;46.58;101854.13;4927003;28;45434;-50
2022/05/21 03:20:45;;;;;;;;;9.50;7.75;;;;;17.32;46.62;101853.38;4946420;28;45441;-47
2022/05/21 03:23:11;;;;;;;;;7.00;7.00;;;;;17.34;46.57;101856.88;4926560;28;46566;-46
2022/05/21 03:25:36;;;;;;;;;6.00;6.00;;;;;17.35;46.61;101863.94;4944325;28;45379;-50
2022/05/21 03:28:03;;;;;;;;;7.00;6.75;;;;;17.35;46.82;101853.31;4944785;28;45311;-50
2022/05/21 03:30:30;;;;;;;;;8.25;7.50;;;;;17.33;46.34;101852.47;4944362;28;45263;-46
2022/05/21 03:32:56;;;;;;;;;8.50;7.25;;;;;17.35;46.67;101854.16;4939475;28;45524;-49
2022/05/21 03:35:22;;;;;;;;;9.00;8.50;;;;;17.35;46.69;101855.97;4934648;28;45294;-48
2022/05/21 03:37:50;;;;;;;;;9.00;7.50;;;;;17.34;46.78;101846.25;4943663;28;45512;-51
2022/05/21 03:40:21;;;;;;;;;12.00;8.00;;;;;17.35;46.57;101856.81;4943940;28;45405;-50
2022/05/21 03:42:46;;;;;;;;;10.50;8.00;;;;;17.36;46.80;101857.72;4943793;28;46391;-48
2022/05/21 03:45:14;;;;;;;;;9.00;8.00;;;;;17.36;46.88;101847.09;4943878;28;45172;-51
2022/05/21 03:47:41;;;;;;;;;9.75;7.00;;;;;17.36;46.64;101841.78;4944062;28;45409;-52
2022/05/21 03:50:11;;;;;;;;;7.25;4.50;;;;;17.36;46.67;101847.94;4943705;28;45410;-49
2022/05/21 03:52:37;;;;;;;;;9.75;8.00;;;;;17.36;47.05;101849.75;4943331;28;45292;-48
2022/05/21 03:55:03;;;;;;;;;7.50;7.50;;;;;17.38;46.84;101863.84;4926241;28;45220;-47
2022/05/21 03:57:28;;;;;;;;;10.00;6.75;;;;;17.38;46.97;101869.16;4943497;28;45448;-49
2022/05/21 03:59:54;;;;;;;;;5.50;5.25;;;;;17.36;46.79;101863.91;4943686;28;45295;-48
2022/05/21 04:02:19;;;;;;;;;9.00;7.00;;;;;17.28;46.87;101847.28;4943350;28;46947;-47
2022/05/21 04:04:45;;;;;;;;;8.50;7.75;;;;;17.36;46.98;101850.59;4943731;28;45345;-47
2022/05/21 04:07:10;;;;;;;;;8.25;7.00;;;;;17.36;46.92;101861.25;4943376;28;45425;-50
2022/05/21 04:09:36;;;;;;;;;10.00;8.50;;;;;17.36;46.63;101871.00;4943579;28;45369;-49
2022/05/21 04:12:03;;;;;;;;;7.00;7.00;;;;;17.37;47.00;101872.72;4943165;28;47040;-46
2022/05/21 04:14:29;;;;;;;;;9.00;6.25;;;;;17.36;46.99;101871.00;4943340;28;45243;-49
2022/05/21 04:17:00;;;;;;;;;9.25;7.00;;;;;17.34;47.09;101864.84;4943248;28;45217;-49
2022/05/21 04:19:26;;;;;;;;;7.75;7.00;;;;;17.35;47.02;101869.25;4944764;28;45501;-47
2022/05/21 04:21:52;;;;;;;;;9.00;9.00;;;;;17.33;46.85;101865.75;4943423;28;45378;-50
2022/05/21 04:24:18;;;;;;;;;8.50;7.75;;;;;17.33;47.10;101877.25;4922836;28;45255;-49
2022/05/21 04:26:44;;;;;;;;;5.25;5.25;;;;;17.32;47.20;101869.31;4941289;28;45320;-50
2022/05/21 04:29:11;;;;;;;;;10.25;9.00;;;;;17.31;47.18;101873.75;4943189;28;45173;-50
2022/05/21 04:31:37;;;;;;;;;8.25;6.50;;;;;17.31;47.00;101872.91;4943127;28;45327;-49
2022/05/21 04:34:03;;;;;;;;;10.25;7.00;;;;;17.29;47.19;101870.25;4938847;28;45425;-45
2022/05/21 04:36:29;;;;;;;;;8.25;8.00;;;;;17.28;47.16;101868.53;4942323;28;45525;-51
2022/05/21 04:38:55;;;;;;;;;5.00;5.00;;;;;17.27;47.14;101868.56;4943057;28;45549;-45
2022/05/21 04:41:22;;;;;;;;;7.50;7.50;;;;;17.25;47.47;101862.44;4942523;28;45319;-46
2022/05/21 04:43:48;;;;;;;;;7.75;7.75;;;;;17.24;47.37;101872.16;4943139;28;45332;-48
2022/05/21 04:46:15;;;;;;;;;7.00;7.00;;;;;17.24;47.24;101872.16;4943056;28;45478;-45
2022/05/21 04:48:41;;;;;;;;;7.00;6.00;;;;;17.25;47.33;101873.06;4943010;28;45434;-46
2022/05/21 04:51:07;;;;;;;;;7.25;7.25;;;;;17.25;47.35;101865.94;4942531;28;46323;-49
2022/05/21 04:53:33;;;;;;;;;7.25;5.00;;;;;17.26;47.41;101853.53;4942861;28;45228;-48
2022/05/21 04:55:59;;;;;;;;;8.00;6.75;;;;;17.25;47.52;101862.44;4942847;28;45426;-48
2022/05/21 04:58:24;;;;;;;;;8.50;7.75;;;;;17.26;47.57;101872.13;4942690;28;45513;-49
2022/05/21 05:00:50;;;;;;;;;7.75;6.50;;;;;17.26;47.40;101874.78;4942498;28;45513;-50
2022/05/21 05:03:17;;;;;;;;;9.25;9.00;;;;;17.24;47.36;101873.97;4942983;28;45319;-50
2022/05/21 05:05:44;;;;;;;;;9.00;7.75;;;;;17.25;47.31;101867.75;4942775;28;45406;-48
2022/05/21 05:08:10;;;;;;;;;6.50;5.00;;;;;17.23;47.44;101873.06;4942466;28;45478;-47
2022/05/21 05:10:38;;;;;;;;;8.25;7.00;;;;;17.21;47.60;101873.09;4941700;28;45327;-50
2022/05/21 05:13:06;;;;;;;;;12.00;8.50;;;;;17.19;47.44;101863.44;4942599;28;45512;-47
2022/05/21 05:15:31;;;;;;;;;9.25;8.25;;;;;17.19;47.44;101868.75;4942534;28;45392;-48
2022/05/21 05:18:02;;;;;;;;;8.25;6.75;;;;;17.17;47.44;101871.44;4942451;28;45233;-48
2022/05/21 05:20:28;;;;;;;;;12.25;8.75;;;;;17.16;47.49;101869.69;4944439;28;45243;-46
2022/05/21 05:22:53;;;;;;;;;7.50;7.50;;;;;17.15;47.51;101873.25;4938008;28;45626;-47
2022/05/21 05:25:19;;;;;;;;;6.25;6.00;;;;;17.15;47.54;101873.25;4942486;28;45355;-49
2022/05/21 05:27:47;;;;;;;;;7.75;6.75;;;;;17.14;47.54;101860.88;4942770;28;46078;-50
2022/05/21 05:30:13;;;;;;;;;9.50;8.00;;;;;17.14;47.62;101863.53;4942450;28;46244;-48
2022/05/21 05:32:39;;;;;;;;;11.25;6.75;;;;;17.13;47.40;101864.47;4942214;28;45227;-50
2022/05/21 05:35:04;;;;;;;;;7.25;7.25;;;;;17.12;47.90;101857.41;4942623;28;45160;-47
2022/05/21 05:37:30;;;;;;;;;11.25;8.75;;;;;17.12;47.61;101862.72;4941865;28;45573;-48
2022/05/21 05:39:57;;;;;;;;;10.00;7.50;;;;;17.11;47.71;101860.97;4942282;28;46132;-48
2022/05/21 05:42:22;;;;;;;;;7.25;6.25;;;;;17.11;47.86;101868.94;4942187;28;45325;-48
2022/05/21 05:44:48;;;;;;;;;8.75;8.25;;;;;17.10;47.85;101864.53;4942222;28;45426;-47
2022/05/21 05:47:13;;;;;;;;;7.75;7.00;;;;;17.11;47.84;101870.72;4924648;28;45397;-48
2022/05/21 05:49:39;;;;;;;;;10.25;10.25;;;;;17.11;47.69;101876.03;4942105;28;45300;-49
2022/05/21 05:52:05;;;;;;;;;8.25;8.25;;;;;17.10;47.70;101872.50;4941882;28;45362;-50
2022/05/21 05:54:32;;;;;;;;;9.75;9.00;;;;;17.10;47.93;101863.66;4942183;28;45410;-51
2022/05/21 05:56:58;;;;;;;;;5.25;4.00;;;;;17.10;47.99;101872.50;4941558;28;45549;-48
2022/05/21 06:04:50;;;;;;;;;10.25;7.00;;;;;17.08;47.84;101869.03;4942118;28;45465;-48
2022/05/21 06:07:16;;;;;;;;;5.00;5.00;;;;;17.12;48.31;101875.09;4941434;28;45401;-49
2022/05/21 06:09:42;;;;;;;;;9.25;8.75;;;;;17.09;48.43;101873.41;4924689;28;46437;-49
2022/05/21 06:12:09;;;;;;;;;8.50;6.25;;;;;17.09;48.09;101876.03;4941802;28;45325;-51
2022/05/21 06:14:35;;;;;;;;;8.75;8.50;;;;;17.09;48.10;101878.72;4941830;28;45232;-48
2022/05/21 06:17:00;;;;;;;;;11.00;8.25;;;;;17.13;48.11;101879.50;4941779;28;46163;-48
2022/05/21 06:19:27;;;;;;;;;9.00;7.00;;;;;17.17;48.29;101882.06;4942717;28;46195;-49
2022/05/21 06:22:00;;;;;;;;;7.00;5.00;;;;;17.18;48.50;101875.84;4952735;28;45259;-49
2022/05/21 06:24:26;;;;;;;;;7.25;6.75;;;;;17.21;48.40;101878.41;4941718;28;45287;-50
2022/05/21 06:26:51;;;;;;;;;8.75;7.25;;;;;17.22;48.56;101877.50;4941778;28;45259;-46
2022/05/21 06:29:17;;;;;;;;;9.25;8.00;;;;;17.22;48.80;101877.50;4941386;28;46280;-49
2022/05/21 06:31:42;;;;;;;;;9.50;9.25;;;;;17.22;48.86;101874.84;4941455;28;45323;-48
2022/05/21 06:34:08;;;;;;;;;9.00;8.25;;;;;17.24;48.71;101881.91;4941690;28;45328;-49
2022/05/21 06:36:34;;;;;;;;;10.00;8.25;;;;;17.25;48.78;101868.59;4941439;28;45979;-48
2022/05/21 06:38:59;;;;;;;;;10.75;10.50;;;;;17.23;48.52;101862.44;4941311;28;45358;-50
2022/05/21 06:41:28;;;;;;;;;11.25;9.50;;;;;17.30;48.82;101863.19;4941278;28;45310;-50
2022/05/21 06:43:54;;;;;;;;;8.00;7.00;;;;;17.32;48.73;101864.00;4941524;28;45260;-47
2022/05/21 06:46:20;;;;;;;;;8.50;8.50;;;;;17.34;48.80;101856.88;4941268;28;45236;-49
2022/05/21 06:48:45;;;;;;;;;7.50;7.50;;;;;17.38;48.65;101871.81;4941158;28;45230;-44
2022/05/21 06:51:11;;;;;;;;;7.50;6.00;;;;;17.43;49.05;101871.72;4941013;28;45259;-47
2022/05/21 06:53:37;;;;;;;;;10.25;7.00;;;;;17.43;48.93;101867.25;4941433;28;45200;-46
2022/05/21 06:56:08;;;;;;;;;6.25;5.00;;;;;17.50;48.87;101868.84;4923741;28;45454;-50
2022/05/21 06:58:34;;;;;;;;;8.00;8.00;;;;;17.51;48.75;101865.28;4940816;28;45610;-46
2022/05/21 07:00:59;;;;;;;;;10.50;8.75;;;;;17.55;48.74;101866.09;4924063;28;45259;-46
2022/05/21 07:03:25;;;;;;;;;8.00;7.00;;;;;17.61;48.91;101878.34;4941332;28;45341;-47
2022/05/21 07:08:35;;;;;;;;;10.75;8.00;;;;;17.69;48.76;101869.25;4940937;28;45283;-48
2022/05/21 07:11:00;;;;;;;;;12.25;9.75;;;;;17.75;48.59;101868.22;4940888;28;45312;-46
2022/05/21 07:13:28;;;;;;;;;11.75;9.00;;;;;17.82;48.66;101868.94;4938988;28;45809;-48
2022/05/21 07:15:54;;;;;;;;;8.25;6.75;;;;;17.89;48.56;101867.88;4941069;28;45408;-49
2022/05/21 07:18:21;;;;;;;;;9.25;9.25;;;;;17.92;48.55;101869.56;4938697;28;47544;-50
2022/05/21 07:20:47;;;;;;;;;7.00;7.00;;;;;17.92;48.75;101872.22;4942909;28;45338;-49
2022/05/21 07:23:13;;;;;;;;;8.50;6.50;;;;;17.98;48.73;101869.44;4940632;28;45371;-48
2022/05/21 07:25:40;;;;;;;;;10.25;10.25;;;;;18.03;48.79;101875.50;4940919;28;45319;-46
2022/05/21 07:28:06;;;;;;;;;10.00;8.75;;;;;18.07;48.80;101870.97;4923587;28;46189;-50
2022/05/21 07:30:32;;;;;;;;;12.50;12.00;;;;;18.11;48.36;101876.16;4936285;28;45381;-49
2022/05/21 07:32:58;;;;;;;;;6.00;5.75;;;;;18.16;48.42;101871.59;4938261;28;45424;-46
2022/05/21 07:35:25;;;;;;;;;12.50;10.25;;;;;18.22;48.69;101878.50;4943966;28;45585;-50
2022/05/21 07:37:51;;;;;;;;;9.00;8.00;;;;;18.25;48.88;101870.47;4943680;28;46689;-49
2022/05/21 07:40:19;;;;;;;;;7.00;7.00;;;;;18.31;48.45;101875.59;4943815;28;45333;-48
2022/05/21 07:42:44;;;;;;;;;8.50;8.50;;;;;18.37;48.54;101876.34;4939464;28;45281;-49
2022/05/21 07:45:14;;;;;;;;;10.00;9.00;;;;;18.42;48.39;101872.63;4935173;28;45414;-49
2022/05/21 07:47:39;;;;;;;;;9.50;8.25;;;;;18.46;48.43;101876.06;4943468;28;45823;-50
2022/05/21 07:50:05;;;;;;;;;10.75;8.00;;;;;18.52;48.35;101871.41;4926377;28;45374;-48
2022/05/21 07:52:30;;;;;;;;;8.00;8.00;;;;;18.57;48.51;101875.75;4943629;28;45366;-48
2022/05/21 07:54:57;;;;;;;;;8.00;7.75;;;;;18.62;48.17;101868.50;4926559;28;45434;-48
2022/05/21 07:57:23;;;;;;;;;9.75;8.00;;;;;18.64;48.29;101866.66;4943209;28;46017;-48
2022/05/21 07:59:48;;;;;;;;;6.75;5.75;;;;;18.71;48.25;101872.69;4943516;28;45405;-48
2022/05/21 08:02:15;;;;;;;;;7.75;6.75;;;;;18.74;48.35;101868.13;4943839;28;45251;-47
2022/05/21 08:04:46;;;;;;;;;7.75;5.50;;;;;18.76;48.25;101866.28;4943708;28;45464;-47
2022/05/21 08:07:12;;;;;;;;;6.50;5.25;;;;;18.81;47.89;101872.31;4942954;28;45279;-48
2022/05/21 08:09:38;;;;;;;;;4.25;3.25;;;;;18.89;47.91;101871.22;4943446;28;45400;-46
2022/05/21 08:12:05;;;;;;;;;5.50;5.50;;;;;18.93;47.67;101864.91;4943429;28;45267;-49
2022/05/21 08:14:32;;;;;;;;;6.50;5.25;;;;;18.98;47.56;101868.28;4926212;28;45521;-48
2022/05/21 08:16:57;;;;;;;;;6.25;5.75;;;;;19.03;47.59;101865.50;4943277;28;45360;-48
2022/05/21 08:19:23;;;;;;;;;7.75;3.25;;;;;19.07;48.09;101870.69;4944373;28;45275;-47
2022/05/21 08:21:49;;;;;;;;;3.00;3.00;;;;;19.09;47.53;101859.97;4957048;28;45387;-49
2022/05/21 08:27:02;;;;;;;;;5.00;3.00;;;;;19.15;47.51;101854.44;4931531;28;45781;-50
2022/05/21 08:29:35;;;;;;;;;6.75;3.50;;;;;19.18;47.40;101846.34;4942820;28;45346;-47
2022/05/21 08:32:03;;;;;;;;;3.00;2.00;;;;;19.21;47.10;101853.41;4943543;28;45418;-50
2022/05/21 08:34:29;;;;;;;;;5.25;5.00;;;;;19.24;47.02;101847.94;4943125;28;45293;-45
2022/05/21 08:36:56;;;;;;;;;2.50;2.25;;;;;19.25;46.92;101850.56;4942865;28;46146;-48
2022/05/21 08:39:21;;;;;;;;;3.75;3.75;;;;;19.28;47.18;101839.81;4942934;28;45177;-47
2022/05/21 08:41:54;;;;;;;;;6.00;3.50;;;;;19.31;46.97;101850.34;4943194;28;45203;-50
2022/05/21 08:44:43;;;;;;;;;4.00;3.50;;;;;19.36;46.89;101850.22;4942629;28;45190;-45
2022/05/21 08:47:15;;;;;;;;;3.50;2.00;;;;;19.39;46.53;101852.75;4925378;28;48524;-48
2022/05/21 08:49:56;;;;;;;;;11.00;8.25;;;;;19.43;46.27;101848.19;4943054;28;45390;-49
2022/05/21 08:52:37;;;;;;;;;4.75;3.00;;;;;19.47;46.58;101845.38;4942838;28;45381;-45
2022/05/21 08:55:06;;;;;;;;;2.00;2.00;;;;;19.53;46.17;101846.09;4925820;28;45395;-50
2022/05/21 08:57:51;;;;;;;;;2.00;2.00;;;;;19.56;46.05;101838.88;4942447;28;46750;-47
2022/05/21 09:00:23;;;;;;;;;2.00;2.00;;;;;19.54;45.79;101826.53;4942853;28;45335;-47
2022/05/21 09:02:50;;;;;;;;;3.00;2.25;;;;;19.66;46.09;101834.09;4925760;28;45482;-49
2022/05/21 09:05:18;;;;;;;;;1.00;1.00;;;;;19.71;45.54;101836.56;4942724;28;45562;-48
2022/05/21 09:07:52;;;;;;;;;4.00;2.75;;;;;19.76;45.90;101834.63;4942461;28;46336;-49
2022/05/21 09:10:43;;;;;;;;;2.75;2.75;;;;;19.80;45.95;101831.78;4942487;28;45349;-48
2022/05/21 09:13:20;;;;;;;;;3.00;2.00;;;;;19.84;45.69;101826.41;4942810;28;45500;-49
2022/05/21 09:18:32;;;;;;;;;4.00;3.50;;;;;19.93;45.25;101820.72;4942435;28;45473;-48
2022/05/21 09:21:02;;;;;;;;;3.75;3.75;;;;;19.98;45.57;101818.75;4944377;28;45251;-50
2022/05/21 09:23:49;;;;;;;;;4.50;3.75;;;;;20.04;45.71;101807.84;4925326;28;45279;-46
2022/05/21 09:26:16;;;;;;;;;3.00;1.75;;;;;20.11;45.60;101816.50;4940275;28;45525;-47
2022/05/21 09:28:41;;;;;;;;;4.00;4.00;;;;;20.16;44.99;101806.50;4942356;28;45306;-48
2022/05/21 09:31:09;;;;;;;;;2.75;2.00;;;;;20.23;44.92;101807.19;4942447;28;45270;-46
2022/05/21 09:33:40;;;;;;;;;5.00;4.25;;;;;20.27;44.96;101804.31;4942815;28;45224;-45
2022/05/21 09:36:07;;;;;;;;;5.50;4.00;;;;;20.33;45.27;101811.22;4941984;28;45481;-45
2022/05/21 09:38:47;;;;;;;;;5.25;3.50;;;;;20.37;44.77;101807.50;4942465;28;46532;-48
2022/05/21 09:41:26;;;;;;;;;6.00;4.00;;;;;20.42;45.00;101802.84;4937642;28;45917;-44
2022/05/21 09:46:46;;;;;;;;;30.75;28.25;;;;;20.57;44.83;101808.53;4942055;28;45288;-46
2022/05/21 09:49:22;;;;;;;;;5.25;5.25;;;;;20.67;44.42;101812.56;4942074;28;45337;-45
2022/05/21 09:51:57;;;;;;;;;4.00;4.00;;;;;20.75;44.26;101812.28;4941741;28;45295;-45
2022/05/21 09:54:27;;;;;;;;;6.00;5.00;;;;;20.84;44.43;101801.25;4942161;28;45366;-44
2022/05/21 09:56:57;;;;;;;;;3.25;3.25;;;;;20.97;44.57;101798.06;4941758;28;45504;-46
2022/05/21 09:59:25;;;;;;;;;3.00;3.00;;;;;21.09;44.72;101795.78;4941693;28;45994;-48
2022/05/21 10:01:59;;;;;;;;;6.50;5.00;;;;;21.23;43.90;101788.94;4941852;28;45247;-47
2022/05/21 10:04:27;;;;;;;;;3.25;3.25;;;;;21.36;44.25;101790.19;4942232;28;45307;-46
2022/05/21 10:07:03;;;;;;;;;4.00;4.00;;;;;21.47;43.74;101788.84;4941642;28;45465;-50
2022/05/21 10:12:37;;;;;;;;;4.00;4.00;;;;;21.71;43.49;101785.13;4941935;28;45412;-50
2022/05/21 10:15:11;;;;;;;;;4.50;4.50;;;;;21.85;43.41;101786.31;4941919;28;45437;-50
2022/05/21 10:17:40;;;;;;;;;4.75;3.75;;;;;21.97;43.83;101782.19;4941811;28;45298;-46
2022/05/21 10:20:43;;;;;;;;;4.00;4.00;;;;;22.14;43.59;101784.97;4948246;28;45255;-46
2022/05/21 10:23:39;;;;;;;;;6.00;4.00;;;;;22.38;44.12;101784.78;4944842;28;45305;-46
2022/05/21 10:26:14;;;;;;;;;5.50;5.50;;;;;22.60;43.83;101789.09;4941742;28;45274;-51
2022/05/21 10:29:01;;;;;;;;;4.25;4.25;;;;;22.84;43.73;101781.66;4941589;28;45247;-47
2022/05/21 10:32:05;;;;;;;;;6.25;4.75;;;;;23.10;43.70;101777.69;4936973;28;46303;-47
2022/05/21 10:35:02;;;;;;;;;6.75;4.50;;;;;23.37;43.81;101771.91;4937430;28;45199;-49
2022/05/21 10:38:15;;;;;;;;;7.50;5.25;;;;;23.72;43.81;101773.66;4936941;28;45390;-51
2022/05/21 10:41:19;;;;;;;;;6.00;5.25;;;;;24.07;43.63;101770.91;4930933;28;45762;-52
2022/05/21 10:44:10;;;;;;;;;3.75;3.75;;;;;24.41;43.86;101771.72;4921031;28;45373;-51
2022/05/21 10:46:53;;;;;;;;;5.00;5.00;;;;;24.74;43.49;101768.06;4941260;28;45347;-51
2022/05/21 10:49:57;;;;;;;;;5.50;5.50;;;;;25.08;43.05;101774.16;4941369;28;45472;-48
2022/05/21 10:52:49;;;;;;;;;6.25;5.00;;;;;25.41;42.95;101767.75;4941125;28;45260;-50
2022/05/21 10:55:26;;;;;;;;;4.50;3.50;;;;;25.70;42.60;101762.38;4941237;28;45418;-50
2022/05/21 10:58:24;;;;;;;;;12.00;10.25;;;;;25.93;42.50;101759.09;4941237;28;45500;-50
2022/05/21 11:01:02;;;;;;;;;5.00;4.00;;;;;26.23;42.66;101760.84;4909129;28;45627;-51
2022/05/21 11:03:55;;;;;;;;;6.00;5.00;;;;;26.58;42.42;101751.44;4936773;28;45349;-49
2022/05/21 11:07:12;;;;;;;;;6.00;4.00;;;;;26.97;41.90;101746.16;4932017;28;46282;-47
2022/05/21 11:09:49;;;;;;;;;3.75;2.75;;;;;27.32;41.98;101743.75;4921833;28;45534;-46
2022/05/21 11:12:26;;;;;;;;;6.50;4.75;;;;;27.61;41.75;101740.00;4944547;28;45232;-50
2022/05/21 11:15:29;;;;;;;;;4.50;4.00;;;;;27.87;41.06;101741.72;4944395;28;45452;-50
2022/05/21 11:18:02;;;;;;;;;3.75;3.75;;;;;28.08;41.43;101751.09;4944360;28;46195;-47
2022/05/21 11:20:38;;;;;;;;;5.25;5.00;;;;;28.28;40.91;101741.53;4946667;28;45332;-48
2022/05/21 11:23:09;;;;;;;;;4.50;3.50;;;;;28.47;40.51;101741.88;4944268;28;45247;-51
2022/05/21 11:25:52;;;;;;;;;4.50;4.25;;;;;28.65;40.26;101733.34;4944192;28;45321;-47
2022/05/21 11:28:37;;;;;;;;;5.00;5.00;;;;;28.87;39.90;101735.31;4944532;28;45543;-51
2022/05/21 11:31:13;;;;;;;;;4.00;4.00;;;;;29.09;40.02;101729.09;4926824;28;45274;-51
2022/05/21 11:39:16;;;;;;;;;7.50;5.75;;;;;30.10;39.26;101718.50;4944029;28;45688;-47
2022/05/21 11:41:53;;;;;;;;;5.25;5.25;;;;;30.49;39.66;101735.19;4943974;28;45235;-49
2022/05/21 11:47:06;;;;;;;;;4.50;4.50;;;;;31.23;38.89;101714.50;4937361;28;45307;-49
2022/05/21 11:50:11;;;;;;;;;8.25;5.25;;;;;31.61;39.05;101710.25;4943769;28;45323;-50
2022/05/21 11:52:37;;;;;;;;;4.00;4.00;;;;;31.97;38.70;101715.25;4943674;28;45507;-46
2022/05/21 11:55:02;;;;;;;;;7.00;4.50;;;;;32.19;37.73;101706.03;4943898;28;45295;-49
2022/05/21 11:57:41;;;;;;;;;6.75;4.75;;;;;32.41;37.21;101707.63;4943507;28;45264;-50
2022/05/21 12:00:08;;;;;;;;;5.00;5.00;;;;;32.56;37.57;101710.78;4943819;28;45381;-46
2022/05/21 12:02:38;;;;;;;;;2.75;2.75;;;;;32.71;36.91;101701.19;4943747;28;45234;-47
2022/05/21 12:05:10;;;;;;;;;4.50;2.75;;;;;32.85;36.46;101702.63;4943744;28;45323;-45
2022/05/21 12:07:43;;;;;;;;;5.50;5.50;;;;;32.93;35.85;101701.06;4943467;28;45392;-50
2022/05/21 12:10:16;;;;;;;;;6.00;4.25;;;;;32.93;35.94;101696.47;4943164;28;47324;-48